• Join FlightAware (Why Join?)
  • Login
  • US Flag 
10:57PM EST


 

Airport Tracker/Info


-or-


 

Live Flight TrackerFlight Track Log ✈ JBU917 ✈ 12-Apr-2013 ✈ KJFK - KORD

Flight Track Log - Related Links

Times and Time Zones

All times are in EDT time to prevent confusion due to time zone crossing. See the JBU917 flight status page for this flight to view local times or setup timezone preferences in your user account.

Time Position Orientation Groundspeed Altitude Reporting Facility
EDT Latitude Longitude Course Direction KTS MPH feet Rate Location/Type
04:44PM 40.6667 -73.7333 323° Northwest 166 191 1,800  Level New York TRACON
04:45PM 40.6667 -73.6500 90° East 246 283 3,400 2,100 Climbing New York TRACON
04:46PM 40.8502 -74.1837 304° West  Level FlightAware Approximate
04:46PM 40.7000 -73.5500 66° East 306 352 6,100  Level New York TRACON
04:47PM 40.9069 -74.2902 306° West  Level FlightAware Approximate
04:47PM 40.7667 -73.4667 43° Northeast 315 362 9,100  Level New York TRACON
04:48PM 40.9645 -74.3960 306° West  Level FlightAware Approximate
04:48PM 40.8500 -73.4500 North 333 383 11,200  Level New York TRACON
04:49PM 41.0275 -74.4942 323° Northwest  Level FlightAware Approximate
04:49PM 40.9167 -73.5333 317° Northwest 314 361 13,700  Level New York TRACON
04:50PM 40.9667 -73.6167 308° West 329 379 16,300 1,620 Climbing New York TRACON
04:51PM 41.0333 -73.7167 311° West 351 404 17,000 300 Climbing New York TRACON
04:52PM 41.0500 -73.8333 281° West 340 391 17,000  Level New York TRACON
04:53PM 41.0667 -73.9500 281° West 338 389 17,000  Level New York TRACON
04:55PM 41.1050 -74.2158 281° West 347 399 17,100 300 Climbing New York Center
04:56PM 41.1428 -74.3472 291° West 347 399 18,000 1,680 Climbing New York Center
04:57PM 41.1808 -74.4622 294° West 348 400 20,500 2,100 Climbing New York Center
04:58PM 41.2144 -74.5856 290° West 354 407 22,300 1,500 Climbing New York Center
04:59PM 41.2539 -74.7175 292° West 360 414 23,600 1,380 Climbing New York Center
05:00PM 41.2931 -74.8494 292° West 374 430 25,100 1,440 Climbing New York Center
05:01PM 41.3322 -74.9844 291° West 385 443 26,500 1,200 Climbing New York Center
05:02PM 41.3731 -75.1253 291° West 396 456 27,600 1,140 Climbing New York Center
05:03PM 41.4136 -75.2633 291° West 407 468 28,800 1,140 Climbing New York Center
05:04PM 41.4539 -75.4072 291° West 407 468 30,000 1,200 Climbing New York Center
05:05PM 41.4961 -75.5486 292° West 412 474 31,300 1,260 Climbing New York Center
05:06PM 41.5342 -75.6900 290° West 412 474 32,600 1,140 Climbing New York Center
05:07PM 41.5744 -75.8231 292° West 407 468 33,700 1,140 Climbing New York Center
05:08PM 41.6119 -75.9619 290° West 400 460 35,000 1,140 Climbing New York Center
05:09PM 41.6481 -76.0897 291° West 389 448 36,000 480 Climbing New York Center
05:10PM 41.6878 -76.2233 292° West 384 442 36,000  Level New York Center
05:11PM 41.7233 -76.3569 290° West 384 442 36,000  Level New York Center
05:13PM 41.7883 -76.5864 291° West 385 443 36,000  Level Cleveland Center
05:14PM 41.8242 -76.7236 289° West 385 443 36,000  Level Cleveland Center
05:15PM 41.8619 -76.8553 291° West 385 443 36,000  Level Cleveland Center
05:16PM 41.8953 -76.9844 289° West 379 436 36,000  Level Cleveland Center
05:17PM 41.9328 -77.1164 291° West 379 436 36,000  Level Cleveland Center
05:18PM 41.9678 -77.2483 290° West 379 436 36,000  Level Cleveland Center
05:19PM 42.0031 -77.3808 290° West 379 436 36,000  Level Cleveland Center
05:20PM 42.0400 -77.5133 291° West 379 436 36,000  Level Cleveland Center
05:21PM 42.0725 -77.6458 288° West 379 436 36,000  Level Cleveland Center
05:22PM 42.1094 -77.7814 290° West 379 436 36,000  Level Cleveland Center
05:23PM 42.1458 -77.9169 290° West 379 436 36,000  Level Cleveland Center
05:24PM 42.1803 -78.0528 289° West 379 436 36,000  Level Cleveland Center
05:25PM 42.2164 -78.1889 290° West 379 436 36,000  Level Cleveland Center
05:26PM 42.2525 -78.3250 290° West 379 436 36,000  Level Cleveland Center
05:27PM 42.2864 -78.4614 289° West 379 436 36,000  Level Cleveland Center
05:28PM 42.3222 -78.6006 289° West 379 436 36,000  Level Cleveland Center
05:29PM 42.3581 -78.7428 289° West 384 442 36,000  Level Cleveland Center
05:30PM 42.3936 -78.8850 289° West 395 455 36,000  Level Cleveland Center
05:31PM 42.4289 -79.0275 289° West 400 460 36,000  Level Cleveland Center
05:32PM 42.4683 -79.1703 291° West 400 460 36,000  Level Cleveland Center
05:33PM 42.4950 -79.3133 284° West 400 460 36,000  Level Cleveland Center
05:34PM 42.5006 -79.4594 273° West 395 455 36,000  Level Cleveland Center
05:35PM 42.5061 -79.6086 273° West 395 455 36,000  Level Cleveland Center
05:36PM 42.5156 -79.7578 275° West 395 455 36,000  Level Cleveland Center
05:37PM 42.5228 -79.8875 274° West 395 455 36,000  Level Cleveland Center
05:38PM 42.5278 -80.0592 272° West 403 464 36,000  Level Cleveland Center
05:39PM 42.5347 -80.2111 274° West 408 470 36,000  Level Cleveland Center
05:40PM 42.5392 -80.3578 272° West 397 457 36,000  Level Cleveland Center
05:41PM 42.5456 -80.5100 273° West 403 464 36,000  Level Cleveland Center
05:42PM 42.5519 -80.6650 273° West 403 464 36,000  Level Cleveland Center
05:43PM 42.5600 -80.8172 274° West 403 464 36,000  Level Cleveland Center
05:44PM 42.5639 -80.9639 272° West 403 464 36,000  Level Cleveland Center
05:45PM 42.5694 -81.1161 273° West 403 464 36,000  Level Cleveland Center
05:46PM 42.5747 -81.2711 273° West 403 464 36,000  Level Cleveland Center
05:47PM 42.5800 -81.4206 273° West 402 463 36,000  Level Cleveland Center
05:48PM 42.6039 -81.5761 282° West 409 471 36,000  Level Cleveland Center
05:49PM 42.6278 -81.7092 284° West 414 476 36,000  Level Cleveland Center
05:50PM 42.6533 -81.8592 283° West 408 470 36,000  Level Cleveland Center
05:51PM 42.6806 -82.0122 284° West 413 475 36,000  Level Cleveland Center
05:52PM 42.7058 -82.1569 283° West 408 470 36,000  Level Cleveland Center
05:53PM 42.7308 -82.3044 283° West 408 470 36,000  Level Cleveland Center
05:54PM 42.7556 -82.4522 283° West 403 464 36,000  Level Cleveland Center
05:55PM 42.7844 -82.6003 285° West 403 464 36,000  Level Cleveland Center
05:56PM 42.8550 -82.7242 308° West 403 464 36,000 -180 Level Cleveland Center
05:57PM 42.9278 -82.8517 308° West 409 471 35,700 -660 Descending Cleveland Center
05:58PM 43.0003 -82.9733 309° West 414 476 34,700 -900 Descending Cleveland Center
05:59PM 43.0725 -83.0986 308° West 421 484 34,000 -360 Descending Cleveland Center
06:00PM 43.1217 -83.2314 297° West 398 458 34,000  Level Cleveland Center
06:01PM 43.0892 -83.3692 252° West 374 430 34,000 -300 Level Cleveland Center
06:02PM 43.0464 -83.5067 247° West 361 415 33,500 -780 Descending Cleveland Center
06:03PM 43.0014 -83.6322 244° Southwest 374 430 32,500 -780 Descending Cleveland Center
06:04PM 42.9644 -83.7667 249° West 380 437 32,000 -300 Descending Cleveland Center
06:05PM 42.9478 -83.9106 261° West 385 443 32,000  Level Cleveland Center
06:06PM 42.9331 -84.0572 262° West 390 449 32,000  Level Cleveland Center
06:07PM 42.9200 -84.2067 263° West 400 460 32,000  Level Cleveland Center
06:08PM 42.9036 -84.3861 263° West 391 450 32,000  Level Chicago Center
06:09PM 42.8889 -84.5342 262° West 395 455 32,000  Level Chicago Center
06:10PM 42.8742 -84.6811 262° West 393 452 32,000  Level Chicago Center
06:11PM 42.8583 -84.8306 262° West 396 456 32,000  Level Chicago Center
06:12PM 42.8422 -84.9794 262° West 397 457 32,000  Level Chicago Center
06:13PM 42.8267 -85.1267 262° West 395 455 32,000 -240 Level Chicago Center
06:14PM 42.8081 -85.2997 262° West 387 445 31,500 -1,260 Descending Chicago Center
06:15PM 42.7917 -85.4483 262° West 393 452 29,400 -2,100 Descending Chicago Center
06:16PM 42.7689 -85.5969 258° West 399 459 27,200 -1,800 Descending Chicago Center
06:17PM 42.7431 -85.7436 257° West 397 457 25,700 -1,500 Descending Chicago Center
06:18PM 42.7172 -85.8861 256° West 389 448 24,200 -1,500 Descending Chicago Center
06:19PM 42.6925 -86.0219 256° West 373 429 22,700 -1,440 Descending Chicago Center
06:20PM 42.6678 -86.1556 256° West 365 420 21,300 -1,380 Descending Chicago Center
06:21PM 42.6386 -86.3111 256° West 355 409 19,900 -1,440 Descending Chicago Center
06:22PM 42.6136 -86.4400 255° West 353 406 18,400 -1,500 Descending Chicago Center
06:24PM 42.5894 -86.5678 256° West 350 403 16,800 -1,560 Descending Chicago Center
06:25PM 42.5661 -86.6928 256° West 343 395 15,200 -1,500 Descending Chicago Center
06:26PM 42.5383 -86.8114 252° West 333 383 13,700 -1,440 Descending Chicago Center
06:27PM 42.5061 -86.9256 249° West 326 375 12,300 -1,560 Descending Chicago Center
06:28PM 42.4703 -87.0581 250° West 314 361 10,500 -1,140 Descending Chicago Center
06:29PM 42.4400 -87.1675 249° West 312 359 10,000 -420 Descending Chicago Center
06:30PM 42.4139 -87.2642 250° West 280 322 9,700 -780 Descending Chicago Center
06:31PM 42.3883 -87.3519 249° West 256 295 8,400 -1,440 Descending Chicago Center
06:32PM 42.3136 -87.3831 197° South 272 313 6,800 -1,200 Descending Chicago Center
06:33PM 42.2461 -87.4017 192° South 264 304 6,000 -600 Descending Chicago Center
06:34PM 42.1608 -87.4267 192° South 262 302 5,600 -780 Descending Chicago Center
06:34PM 42.1167 -87.4333 186° South 261 300 4,900 -1,140 Descending Chicago TRACON
06:35PM 42.0500 -87.4167 169° South 266 306 4,000 -480 Descending Chicago TRACON
06:36PM 42.0000 -87.4667 217° Southwest 238 274 4,000  Level Chicago TRACON
06:37PM 42.0000 -87.5333 270° West 217 250 4,000  Level Chicago TRACON
06:38PM 42.0000 -87.6167 270° West 193 222 4,000 -180 Level Chicago TRACON
06:39PM 42.0000 -87.7000 270° West 187 215 3,700 -600 Descending Chicago TRACON
06:40PM 42.0000 -87.7667 270° West 176 203 2,800 -960 Descending Chicago TRACON
06:41PM 42.0000 -87.8167 270° West 150 173 1,900 -600 Descending Chicago TRACON
06:43PM 42.0019 -87.9044 272° West 164 189 1,300 -360 Descending Chicago Center
06:45PM 41.9817 -87.9067 217° Southwest  Level Estimated